sensor_id;sensor_type;location;lat;lon;timestamp;pressure;altitude;pressure_sealevel;temperature;humidity
72721;BME280;60835;50.974;10.322;2023-05-23T00:01:18;97137.69;;;16.26;100.00
72721;BME280;60835;50.974;10.322;2023-05-23T00:03:46;97126.81;;;16.27;100.00
72721;BME280;60835;50.974;10.322;2023-05-23T00:06:18;97117.53;;;16.12;100.00
72721;BME280;60835;50.974;10.322;2023-05-23T00:08:46;97139.09;;;16.28;100.00
72721;BME280;60835;50.974;10.322;2023-05-23T00:11:13;97144.38;;;16.35;100.00
72721;BME280;60835;50.974;10.322;2023-05-23T00:13:40;97135.97;;;16.56;100.00
72721;BME280;60835;50.974;10.322;2023-05-23T00:16:08;97148.88;;;16.34;100.00
72721;BME280;60835;50.974;10.322;2023-05-23T00:18:37;97096.63;;;16.09;100.00
72721;BME280;60835;50.974;10.322;2023-05-23T00:21:08;97102.69;;;16.16;100.00
72721;BME280;60835;50.974;10.322;2023-05-23T00:23:35;97087.88;;;16.20;100.00
72721;BME280;60835;50.974;10.322;2023-05-23T00:26:01;97089.06;;;16.24;100.00
72721;BME280;60835;50.974;10.322;2023-05-23T00:28:29;97075.00;;;16.17;100.00
72721;BME280;60835;50.974;10.322;2023-05-23T00:30:55;97066.25;;;16.28;100.00
72721;BME280;60835;50.974;10.322;2023-05-23T00:33:22;97100.34;;;16.44;100.00
72721;BME280;60835;50.974;10.322;2023-05-23T00:35:49;97093.81;;;16.40;100.00
72721;BME280;60835;50.974;10.322;2023-05-23T00:38:16;97059.63;;;16.49;100.00
72721;BME280;60835;50.974;10.322;2023-05-23T00:40:43;97035.22;;;16.63;100.00
72721;BME280;60835;50.974;10.322;2023-05-23T00:43:09;97031.66;;;16.51;100.00
72721;BME280;60835;50.974;10.322;2023-05-23T00:45:36;97027.59;;;16.49;100.00
72721;BME280;60835;50.974;10.322;2023-05-23T00:48:03;96998.56;;;16.52;100.00
72721;BME280;60835;50.974;10.322;2023-05-23T00:50:31;97005.72;;;16.58;100.00
72721;BME280;60835;50.974;10.322;2023-05-23T00:52:59;97001.25;;;16.52;100.00
72721;BME280;60835;50.974;10.322;2023-05-23T00:55:27;96954.03;;;16.23;100.00
72721;BME280;60835;50.974;10.322;2023-05-23T00:57:54;96957.56;;;16.35;100.00
72721;BME280;60835;50.974;10.322;2023-05-23T01:00:24;96915.31;;;16.32;100.00
72721;BME280;60835;50.974;10.322;2023-05-23T01:02:51;96918.22;;;16.42;100.00
72721;BME280;60835;50.974;10.322;2023-05-23T01:05:19;96934.09;;;16.07;100.00
72721;BME280;60835;50.974;10.322;2023-05-23T01:07:49;96925.00;;;16.15;100.00
72721;BME280;60835;50.974;10.322;2023-05-23T01:10:19;96914.34;;;15.97;100.00
72721;BME280;60835;50.974;10.322;2023-05-23T01:12:55;96926.75;;;16.21;100.00
72721;BME280;60835;50.974;10.322;2023-05-23T01:15:52;96923.63;;;16.24;100.00
72721;BME280;60835;50.974;10.322;2023-05-23T01:18:32;96898.66;;;16.18;100.00
72721;BME280;60835;50.974;10.322;2023-05-23T01:21:06;96871.47;;;16.10;100.00
72721;BME280;60835;50.974;10.322;2023-05-23T01:29:02;96820.81;;;16.10;100.00
72721;BME280;60835;50.974;10.322;2023-05-23T01:31:42;96845.66;;;16.22;100.00
72721;BME280;60835;50.974;10.322;2023-05-23T01:34:11;96852.81;;;16.10;100.00
72721;BME280;60835;50.974;10.322;2023-05-23T01:36:42;96879.28;;;16.11;100.00
72721;BME280;60835;50.974;10.322;2023-05-23T01:39:09;96895.50;;;16.10;100.00
72721;BME280;60835;50.974;10.322;2023-05-23T01:41:36;96907.53;;;16.01;100.00
72721;BME280;60835;50.974;10.322;2023-05-23T01:44:03;96859.44;;;15.77;100.00
72721;BME280;60835;50.974;10.322;2023-05-23T01:46:31;96907.66;;;16.06;100.00
72721;BME280;60835;50.974;10.322;2023-05-23T01:49:00;96911.22;;;16.00;100.00
72721;BME280;60835;50.974;10.322;2023-05-23T01:51:29;96898.50;;;16.02;100.00
72721;BME280;60835;50.974;10.322;2023-05-23T01:53:57;96894.28;;;15.76;100.00
72721;BME280;60835;50.974;10.322;2023-05-23T01:56:23;96878.41;;;15.51;100.00
72721;BME280;60835;50.974;10.322;2023-05-23T01:58:50;96851.09;;;15.56;100.00
72721;BME280;60835;50.974;10.322;2023-05-23T02:01:17;96819.75;;;15.69;100.00
72721;BME280;60835;50.974;10.322;2023-05-23T02:03:44;96833.66;;;15.71;100.00
72721;BME280;60835;50.974;10.322;2023-05-23T02:06:11;96814.59;;;15.56;100.00
72721;BME280;60835;50.974;10.322;2023-05-23T02:08:37;96813.31;;;15.59;100.00
72721;BME280;60835;50.974;10.322;2023-05-23T02:11:04;96758.94;;;15.30;100.00
72721;BME280;60835;50.974;10.322;2023-05-23T02:13:31;96787.63;;;15.46;100.00
72721;BME280;60835;50.974;10.322;2023-05-23T02:15:57;96733.59;;;15.39;100.00
72721;BME280;60835;50.974;10.322;2023-05-23T02:18:24;96742.63;;;15.38;100.00
72721;BME280;60835;50.974;10.322;2023-05-23T02:20:51;96765.69;;;15.44;100.00
72721;BME280;60835;50.974;10.322;2023-05-23T02:23:18;96762.88;;;15.57;100.00
72721;BME280;60835;50.974;10.322;2023-05-23T02:25:44;96751.56;;;15.44;100.00
72721;BME280;60835;50.974;10.322;2023-05-23T02:28:11;96738.91;;;15.57;100.00
72721;BME280;60835;50.974;10.322;2023-05-23T02:30:38;96764.97;;;15.55;100.00
72721;BME280;60835;50.974;10.322;2023-05-23T02:33:06;96756.44;;;15.65;100.00
72721;BME280;60835;50.974;10.322;2023-05-23T02:35:33;96750.88;;;15.66;100.00
72721;BME280;60835;50.974;10.322;2023-05-23T02:38:00;96748.34;;;15.71;100.00
72721;BME280;60835;50.974;10.322;2023-05-23T02:40:26;96751.34;;;15.63;100.00
72721;BME280;60835;50.974;10.322;2023-05-23T02:42:53;96807.91;;;15.95;100.00
72721;BME280;60835;50.974;10.322;2023-05-23T02:45:23;96821.81;;;15.97;100.00
72721;BME280;60835;50.974;10.322;2023-05-23T02:47:50;96834.00;;;16.05;100.00
72721;BME280;60835;50.974;10.322;2023-05-23T02:50:16;96856.28;;;15.99;100.00
72721;BME280;60835;50.974;10.322;2023-05-23T02:52:43;96866.50;;;16.02;100.00
72721;BME280;60835;50.974;10.322;2023-05-23T02:55:10;96876.69;;;16.05;100.00
72721;BME280;60835;50.974;10.322;2023-05-23T02:57:36;96870.09;;;16.07;100.00
72721;BME280;60835;50.974;10.322;2023-05-23T03:00:03;96902.47;;;16.11;100.00
72721;BME280;60835;50.974;10.322;2023-05-23T03:02:30;96866.19;;;15.92;100.00
72721;BME280;60835;50.974;10.322;2023-05-23T03:04:57;96910.88;;;16.26;100.00
72721;BME280;60835;50.974;10.322;2023-05-23T03:07:23;96914.22;;;16.21;100.00
72721;BME280;60835;50.974;10.322;2023-05-23T03:09:55;96940.09;;;16.21;100.00
72721;BME280;60835;50.974;10.322;2023-05-23T03:12:21;96950.31;;;16.24;100.00
72721;BME280;60835;50.974;10.322;2023-05-23T03:14:50;96970.63;;;16.25;100.00
72721;BME280;60835;50.974;10.322;2023-05-23T03:17:17;96945.59;;;16.08;100.00
72721;BME280;60835;50.974;10.322;2023-05-23T03:19:44;97002.03;;;16.41;100.00
72721;BME280;60835;50.974;10.322;2023-05-23T03:22:11;97026.63;;;16.43;100.00
72721;BME280;60835;50.974;10.322;2023-05-23T03:24:37;97061.06;;;16.33;100.00
72721;BME280;60835;50.974;10.322;2023-05-23T03:27:04;97052.38;;;16.37;100.00
72721;BME280;60835;50.974;10.322;2023-05-23T03:29:31;97087.75;;;16.33;100.00
72721;BME280;60835;50.974;10.322;2023-05-23T03:31:58;97093.91;;;16.33;100.00
72721;BME280;60835;50.974;10.322;2023-05-23T03:34:24;97065.78;;;16.13;100.00
72721;BME280;60835;50.974;10.322;2023-05-23T03:36:52;97106.13;;;16.41;100.00
72721;BME280;60835;50.974;10.322;2023-05-23T03:39:18;97081.34;;;16.16;100.00
72721;BME280;60835;50.974;10.322;2023-05-23T03:41:45;97130.44;;;16.33;100.00
72721;BME280;60835;50.974;10.322;2023-05-23T03:44:12;97138.00;;;16.36;100.00
72721;BME280;60835;50.974;10.322;2023-05-23T03:46:40;97121.31;;;16.22;100.00
72721;BME280;60835;50.974;10.322;2023-05-23T03:49:07;97124.66;;;16.36;100.00
72721;BME280;60835;50.974;10.322;2023-05-23T03:51:34;97133.75;;;16.28;100.00
72721;BME280;60835;50.974;10.322;2023-05-23T03:54:01;97092.53;;;16.06;100.00
72721;BME280;60835;50.974;10.322;2023-05-23T03:56:28;97140.34;;;16.26;100.00
72721;BME280;60835;50.974;10.322;2023-05-23T03:58:54;97090.75;;;16.00;100.00
72721;BME280;60835;50.974;10.322;2023-05-23T04:01:21;97143.63;;;16.28;100.00
72721;BME280;60835;50.974;10.322;2023-05-23T04:03:48;97142.03;;;16.20;100.00
72721;BME280;60835;50.974;10.322;2023-05-23T04:06:15;97145.03;;;16.12;100.00
72721;BME280;60835;50.974;10.322;2023-05-23T04:08:42;97172.66;;;16.18;100.00
72721;BME280;60835;50.974;10.322;2023-05-23T04:11:09;97165.69;;;15.99;100.00
72721;BME280;60835;50.974;10.322;2023-05-23T04:13:36;97225.44;;;16.16;100.00
72721;BME280;60835;50.974;10.322;2023-05-23T04:16:04;97253.28;;;16.02;100.00
72721;BME280;60835;50.974;10.322;2023-05-23T04:18:31;97337.41;;;16.29;100.00
72721;BME280;60835;50.974;10.322;2023-05-23T04:21:04;97375.16;;;16.32;100.00
72721;BME280;60835;50.974;10.322;2023-05-23T04:23:31;97393.44;;;15.98;100.00
72721;BME280;60835;50.974;10.322;2023-05-23T04:25:58;97459.22;;;16.17;100.00
72721;BME280;60835;50.974;10.322;2023-05-23T04:28:26;97531.03;;;16.25;100.00
72721;BME280;60835;50.974;10.322;2023-05-23T04:30:53;97521.06;;;16.01;100.00
72721;BME280;60835;50.974;10.322;2023-05-23T04:33:19;97582.34;;;16.27;100.00
72721;BME280;60835;50.974;10.322;2023-05-23T04:35:46;97565.81;;;15.99;100.00
72721;BME280;60835;50.974;10.322;2023-05-23T04:38:14;97627.75;;;16.14;100.00
72721;BME280;60835;50.974;10.322;2023-05-23T04:40:41;97651.34;;;16.17;100.00
72721;BME280;60835;50.974;10.322;2023-05-23T04:43:08;97677.78;;;16.38;100.00
72721;BME280;60835;50.974;10.322;2023-05-23T04:45:36;97680.06;;;16.21;100.00
72721;BME280;60835;50.974;10.322;2023-05-23T04:48:03;97736.09;;;16.41;100.00
72721;BME280;60835;50.974;10.322;2023-05-23T04:50:30;97766.47;;;16.40;100.00
72721;BME280;60835;50.974;10.322;2023-05-23T04:52:58;97770.00;;;16.14;100.00
72721;BME280;60835;50.974;10.322;2023-05-23T04:55:25;97775.94;;;16.23;100.00
72721;BME280;60835;50.974;10.322;2023-05-23T04:57:52;97842.88;;;16.34;100.00
72721;BME280;60835;50.974;10.322;2023-05-23T05:00:18;97822.53;;;16.27;100.00
72721;BME280;60835;50.974;10.322;2023-05-23T05:02:45;97855.19;;;16.35;100.00
72721;BME280;60835;50.974;10.322;2023-05-23T05:05:12;97866.72;;;16.36;100.00
72721;BME280;60835;50.974;10.322;2023-05-23T05:07:38;97878.38;;;16.41;100.00
72721;BME280;60835;50.974;10.322;2023-05-23T05:10:06;97862.56;;;16.27;100.00
72721;BME280;60835;50.974;10.322;2023-05-23T05:12:33;97886.81;;;16.32;100.00
72721;BME280;60835;50.974;10.322;2023-05-23T05:14:59;97906.75;;;16.49;100.00
72721;BME280;60835;50.974;10.322;2023-05-23T05:17:26;97905.31;;;16.40;100.00
72721;BME280;60835;50.974;10.322;2023-05-23T05:19:53;97902.63;;;16.40;100.00
72721;BME280;60835;50.974;10.322;2023-05-23T05:22:19;97890.50;;;16.31;100.00
72721;BME280;60835;50.974;10.322;2023-05-23T05:24:46;97892.94;;;16.13;100.00
72721;BME280;60835;50.974;10.322;2023-05-23T05:27:13;97908.13;;;16.19;100.00
72721;BME280;60835;50.974;10.322;2023-05-23T05:29:40;97885.53;;;16.08;100.00
72721;BME280;60835;50.974;10.322;2023-05-23T05:32:07;97883.47;;;15.91;100.00
72721;BME280;60835;50.974;10.322;2023-05-23T05:34:34;97893.31;;;16.03;100.00
72721;BME280;60835;50.974;10.322;2023-05-23T05:37:01;97900.53;;;16.16;100.00
72721;BME280;60835;50.974;10.322;2023-05-23T05:39:28;97914.31;;;16.19;100.00
72721;BME280;60835;50.974;10.322;2023-05-23T05:41:54;97902.38;;;16.15;100.00
72721;BME280;60835;50.974;10.322;2023-05-23T05:44:21;97923.31;;;16.12;100.00
72721;BME280;60835;50.974;10.322;2023-05-23T05:46:48;97924.78;;;16.21;100.00
72721;BME280;60835;50.974;10.322;2023-05-23T05:49:15;97920.81;;;15.91;100.00
72721;BME280;60835;50.974;10.322;2023-05-23T05:51:41;97901.44;;;15.75;100.00
72721;BME280;60835;50.974;10.322;2023-05-23T05:54:08;97938.38;;;15.78;100.00
72721;BME280;60835;50.974;10.322;2023-05-23T05:56:34;97936.16;;;15.82;100.00
72721;BME280;60835;50.974;10.322;2023-05-23T05:59:01;97914.59;;;15.77;100.00
72721;BME280;60835;50.974;10.322;2023-05-23T06:01:27;97930.59;;;15.77;100.00
72721;BME280;60835;50.974;10.322;2023-05-23T06:03:54;97928.53;;;15.79;100.00
72721;BME280;60835;50.974;10.322;2023-05-23T06:06:21;97944.28;;;15.67;100.00
72721;BME280;60835;50.974;10.322;2023-05-23T06:08:48;97942.88;;;15.71;100.00
72721;BME280;60835;50.974;10.322;2023-05-23T06:11:14;97953.94;;;15.68;100.00
72721;BME280;60835;50.974;10.322;2023-05-23T06:13:41;97966.47;;;15.74;100.00
72721;BME280;60835;50.974;10.322;2023-05-23T06:16:08;97977.84;;;15.90;100.00
72721;BME280;60835;50.974;10.322;2023-05-23T06:18:35;97980.59;;;15.68;100.00
72721;BME280;60835;50.974;10.322;2023-05-23T06:21:01;98002.31;;;15.65;100.00
72721;BME280;60835;50.974;10.322;2023-05-23T06:23:28;97967.03;;;15.63;100.00
72721;BME280;60835;50.974;10.322;2023-05-23T06:25:55;98004.59;;;15.68;100.00
72721;BME280;60835;50.974;10.322;2023-05-23T06:28:21;98005.28;;;15.83;100.00
72721;BME280;60835;50.974;10.322;2023-05-23T06:30:48;97988.16;;;15.58;100.00
72721;BME280;60835;50.974;10.322;2023-05-23T06:33:15;97996.28;;;15.84;100.00
72721;BME280;60835;50.974;10.322;2023-05-23T06:35:41;98015.47;;;16.08;100.00
72721;BME280;60835;50.974;10.322;2023-05-23T06:38:08;97985.34;;;16.27;100.00
72721;BME280;60835;50.974;10.322;2023-05-23T06:40:35;97945.41;;;16.92;100.00
72721;BME280;60835;50.974;10.322;2023-05-23T06:43:01;97804.53;;;18.33;100.00
72721;BME280;60835;50.974;10.322;2023-05-23T06:45:28;97531.97;;;19.12;100.00
72721;BME280;60835;50.974;10.322;2023-05-23T06:47:55;97460.47;;;18.23;100.00
72721;BME280;60835;50.974;10.322;2023-05-23T06:50:22;97531.16;;;17.61;100.00
72721;BME280;60835;50.974;10.322;2023-05-23T06:52:48;97570.38;;;17.43;100.00
72721;BME280;60835;50.974;10.322;2023-05-23T06:55:15;97596.25;;;17.49;100.00
72721;BME280;60835;50.974;10.322;2023-05-23T06:57:45;97619.47;;;17.24;100.00
72721;BME280;60835;50.974;10.322;2023-05-23T07:00:12;97613.44;;;17.03;100.00
72721;BME280;60835;50.974;10.322;2023-05-23T07:02:39;97637.84;;;16.69;100.00
72721;BME280;60835;50.974;10.322;2023-05-23T07:05:06;97678.63;;;16.96;100.00
72721;BME280;60835;50.974;10.322;2023-05-23T07:07:33;97691.31;;;16.56;100.00
72721;BME280;60835;50.974;10.322;2023-05-23T07:10:00;97707.25;;;16.89;100.00
72721;BME280;60835;50.974;10.322;2023-05-23T07:12:27;97708.19;;;17.08;100.00
72721;BME280;60835;50.974;10.322;2023-05-23T07:14:54;97694.91;;;16.81;100.00
72721;BME280;60835;50.974;10.322;2023-05-23T07:17:20;97727.41;;;16.72;100.00
72721;BME280;60835;50.974;10.322;2023-05-23T07:19:47;97702.63;;;17.02;100.00
72721;BME280;60835;50.974;10.322;2023-05-23T07:22:14;97720.38;;;16.90;100.00
72721;BME280;60835;50.974;10.322;2023-05-23T07:24:41;97689.00;;;16.73;100.00
72721;BME280;60835;50.974;10.322;2023-05-23T07:27:07;97728.66;;;16.63;100.00
72721;BME280;60835;50.974;10.322;2023-05-23T07:29:34;97745.94;;;16.34;100.00
72721;BME280;60835;50.974;10.322;2023-05-23T07:32:00;97781.28;;;16.62;100.00
72721;BME280;60835;50.974;10.322;2023-05-23T07:34:27;97789.91;;;16.64;100.00
72721;BME280;60835;50.974;10.322;2023-05-23T07:36:53;97747.16;;;16.64;100.00
72721;BME280;60835;50.974;10.322;2023-05-23T07:39:20;97731.16;;;16.31;100.00
72721;BME280;60835;50.974;10.322;2023-05-23T07:41:48;97805.31;;;16.49;100.00
72721;BME280;60835;50.974;10.322;2023-05-23T07:44:17;97816.19;;;16.61;100.00
72721;BME280;60835;50.974;10.322;2023-05-23T07:46:44;97775.72;;;16.44;100.00
72721;BME280;60835;50.974;10.322;2023-05-23T07:49:10;97773.88;;;16.31;100.00
72721;BME280;60835;50.974;10.322;2023-05-23T07:51:37;97833.44;;;16.58;100.00
72721;BME280;60835;50.974;10.322;2023-05-23T07:54:04;97872.25;;;16.41;100.00
72721;BME280;60835;50.974;10.322;2023-05-23T07:56:30;97845.75;;;16.46;100.00
72721;BME280;60835;50.974;10.322;2023-05-23T07:58:57;97819.03;;;16.85;100.00
72721;BME280;60835;50.974;10.322;2023-05-23T08:01:23;97771.81;;;16.73;100.00
72721;BME280;60835;50.974;10.322;2023-05-23T08:03:50;97830.13;;;16.17;100.00
72721;BME280;60835;50.974;10.322;2023-05-23T08:06:17;97928.50;;;16.33;100.00
72721;BME280;60835;50.974;10.322;2023-05-23T08:08:43;97911.84;;;16.31;100.00
72721;BME280;60835;50.974;10.322;2023-05-23T08:11:10;97917.28;;;16.57;100.00
72721;BME280;60835;50.974;10.322;2023-05-23T08:13:36;97934.47;;;16.48;100.00
72721;BME280;60835;50.974;10.322;2023-05-23T08:16:03;97916.84;;;16.60;100.00
72721;BME280;60835;50.974;10.322;2023-05-23T08:18:30;97920.16;;;16.62;100.00
72721;BME280;60835;50.974;10.322;2023-05-23T08:20:57;97864.03;;;16.49;100.00
72721;BME280;60835;50.974;10.322;2023-05-23T08:23:23;97899.19;;;16.59;100.00
72721;BME280;60835;50.974;10.322;2023-05-23T08:25:51;97852.75;;;16.67;100.00
72721;BME280;60835;50.974;10.322;2023-05-23T08:28:18;97886.84;;;16.58;100.00
72721;BME280;60835;50.974;10.322;2023-05-23T08:30:45;97897.91;;;16.35;100.00
72721;BME280;60835;50.974;10.322;2023-05-23T08:33:12;97963.22;;;16.33;100.00
72721;BME280;60835;50.974;10.322;2023-05-23T08:35:38;97968.56;;;16.46;100.00
72721;BME280;60835;50.974;10.322;2023-05-23T08:38:06;97936.38;;;16.61;100.00
72721;BME280;60835;50.974;10.322;2023-05-23T08:40:35;97930.78;;;16.49;100.00
72721;BME280;60835;50.974;10.322;2023-05-23T08:43:02;97935.31;;;16.55;100.00
72721;BME280;60835;50.974;10.322;2023-05-23T08:45:29;97894.25;;;16.69;100.00
72721;BME280;60835;50.974;10.322;2023-05-23T08:47:59;97855.97;;;17.15;100.00
72721;BME280;60835;50.974;10.322;2023-05-23T08:50:29;97842.41;;;17.03;100.00
72721;BME280;60835;50.974;10.322;2023-05-23T08:52:57;97831.75;;;16.96;100.00
72721;BME280;60835;50.974;10.322;2023-05-23T08:55:25;97804.94;;;17.23;100.00
72721;BME280;60835;50.974;10.322;2023-05-23T08:57:58;97813.09;;;16.77;100.00
72721;BME280;60835;50.974;10.322;2023-05-23T09:00:26;97783.69;;;16.83;100.00
72721;BME280;60835;50.974;10.322;2023-05-23T09:02:53;97806.31;;;16.74;100.00
72721;BME280;60835;50.974;10.322;2023-05-23T09:05:20;97854.78;;;16.91;100.00
72721;BME280;60835;50.974;10.322;2023-05-23T09:07:48;97798.94;;;16.43;100.00
72721;BME280;60835;50.974;10.322;2023-05-23T09:10:20;97843.28;;;16.77;100.00
72721;BME280;60835;50.974;10.322;2023-05-23T09:12:47;97846.56;;;16.79;100.00
72721;BME280;60835;50.974;10.322;2023-05-23T09:15:14;97856.63;;;16.90;100.00
72721;BME280;60835;50.974;10.322;2023-05-23T09:17:43;97827.69;;;16.48;100.00
72721;BME280;60835;50.974;10.322;2023-05-23T09:20:13;97929.13;;;16.35;100.00
72721;BME280;60835;50.974;10.322;2023-05-23T09:22:42;97984.78;;;16.38;100.00
72721;BME280;60835;50.974;10.322;2023-05-23T09:25:11;97956.53;;;15.96;100.00
72721;BME280;60835;50.974;10.322;2023-05-23T09:27:37;97948.13;;;16.06;100.00
72721;BME280;60835;50.974;10.322;2023-05-23T09:30:09;97967.50;;;16.34;100.00
72721;BME280;60835;50.974;10.322;2023-05-23T09:32:35;97963.59;;;16.30;100.00
72721;BME280;60835;50.974;10.322;2023-05-23T09:35:04;97992.81;;;16.51;100.00
72721;BME280;60835;50.974;10.322;2023-05-23T09:37:39;98004.97;;;16.00;100.00
72721;BME280;60835;50.974;10.322;2023-05-23T09:40:08;98017.78;;;16.24;100.00
72721;BME280;60835;50.974;10.322;2023-05-23T09:42:46;98029.28;;;16.31;100.00
72721;BME280;60835;50.974;10.322;2023-05-23T09:45:14;98010.28;;;16.00;100.00
72721;BME280;60835;50.974;10.322;2023-05-23T09:47:51;98039.97;;;16.31;100.00
72721;BME280;60835;50.974;10.322;2023-05-23T09:50:19;98020.47;;;16.24;100.00
72721;BME280;60835;50.974;10.322;2023-05-23T09:52:46;98027.28;;;16.33;100.00
72721;BME280;60835;50.974;10.322;2023-05-23T09:55:13;98041.38;;;16.20;100.00
72721;BME280;60835;50.974;10.322;2023-05-23T09:57:41;98026.78;;;16.16;100.00
72721;BME280;60835;50.974;10.322;2023-05-23T10:00:09;97984.44;;;16.00;100.00
72721;BME280;60835;50.974;10.322;2023-05-23T10:03:11;98030.97;;;16.32;100.00
72721;BME280;60835;50.974;10.322;2023-05-23T10:05:49;98008.00;;;16.44;100.00
72721;BME280;60835;50.974;10.322;2023-05-23T10:08:23;97986.28;;;16.60;100.00
72721;BME280;60835;50.974;10.322;2023-05-23T10:13:26;97941.44;;;16.42;100.00
72721;BME280;60835;50.974;10.322;2023-05-23T10:15:58;97909.41;;;16.42;100.00
72721;BME280;60835;50.974;10.322;2023-05-23T10:18:28;97930.44;;;16.65;100.00
72721;BME280;60835;50.974;10.322;2023-05-23T10:21:03;97911.94;;;16.83;100.00
72721;BME280;60835;50.974;10.322;2023-05-23T10:23:32;97911.94;;;16.57;100.00
72721;BME280;60835;50.974;10.322;2023-05-23T10:25:59;97908.41;;;16.89;100.00
72721;BME280;60835;50.974;10.322;2023-05-23T10:28:26;97883.75;;;17.00;100.00
72721;BME280;60835;50.974;10.322;2023-05-23T10:30:53;97833.78;;;17.01;100.00
72721;BME280;60835;50.974;10.322;2023-05-23T10:33:20;97865.03;;;17.00;100.00
72721;BME280;60835;50.974;10.322;2023-05-23T10:37:01;97854.75;;;17.04;100.00
72721;BME280;60835;50.974;10.322;2023-05-23T10:39:15;97826.38;;;17.10;100.00
72721;BME280;60835;50.974;10.322;2023-05-23T10:41:58;97825.59;;;16.89;100.00
72721;BME280;60835;50.974;10.322;2023-05-23T10:44:29;97794.81;;;16.67;100.00
72721;BME280;60835;50.974;10.322;2023-05-23T10:46:57;97819.44;;;16.82;100.00
72721;BME280;60835;50.974;10.322;2023-05-23T10:49:44;97790.72;;;16.65;100.00
72721;BME280;60835;50.974;10.322;2023-05-23T10:52:13;97816.97;;;16.87;100.00
72721;BME280;60835;50.974;10.322;2023-05-23T10:54:42;97818.22;;;16.85;100.00
72721;BME280;60835;50.974;10.322;2023-05-23T10:57:11;97828.50;;;16.68;100.00
72721;BME280;60835;50.974;10.322;2023-05-23T10:59:38;97826.47;;;16.70;100.00
72721;BME280;60835;50.974;10.322;2023-05-23T11:02:13;97828.94;;;16.59;100.00
72721;BME280;60835;50.974;10.322;2023-05-23T11:04:43;97829.34;;;16.62;100.00
72721;BME280;60835;50.974;10.322;2023-05-23T11:07:29;97804.47;;;16.68;100.00
72721;BME280;60835;50.974;10.322;2023-05-23T11:10:22;97801.00;;;16.55;100.00
72721;BME280;60835;50.974;10.322;2023-05-23T11:12:48;97734.47;;;16.27;100.00
72721;BME280;60835;50.974;10.322;2023-05-23T11:17:53;97768.13;;;16.41;100.00
72721;BME280;60835;50.974;10.322;2023-05-23T11:20:21;97791.13;;;16.09;100.00
72721;BME280;60835;50.974;10.322;2023-05-23T11:22:58;97856.03;;;16.23;100.00
72721;BME280;60835;50.974;10.322;2023-05-23T11:25:41;97894.19;;;16.30;100.00
72721;BME280;60835;50.974;10.322;2023-05-23T11:28:11;97897.50;;;16.38;100.00
72721;BME280;60835;50.974;10.322;2023-05-23T11:30:38;97949.00;;;16.26;100.00
72721;BME280;60835;50.974;10.322;2023-05-23T11:33:10;97931.91;;;16.01;100.00
72721;BME280;60835;50.974;10.322;2023-05-23T11:35:44;98007.44;;;16.08;100.00
72721;BME280;60835;50.974;10.322;2023-05-23T11:38:12;98031.56;;;15.80;100.00
72721;BME280;60835;50.974;10.322;2023-05-23T11:40:41;98050.00;;;15.81;100.00
72721;BME280;60835;50.974;10.322;2023-05-23T11:43:10;98023.63;;;15.59;100.00
72721;BME280;60835;50.974;10.322;2023-05-23T11:45:38;98067.44;;;15.77;100.00
72721;BME280;60835;50.974;10.322;2023-05-23T11:48:12;98109.94;;;15.51;100.00
72721;BME280;60835;50.974;10.322;2023-05-23T11:50:46;98135.56;;;15.52;100.00
72721;BME280;60835;50.974;10.322;2023-05-23T11:53:14;98148.34;;;15.42;100.00
72721;BME280;60835;50.974;10.322;2023-05-23T11:55:57;98125.25;;;15.07;100.00
72721;BME280;60835;50.974;10.322;2023-05-23T11:58:28;98133.59;;;14.83;100.00
72721;BME280;60835;50.974;10.322;2023-05-23T12:01:03;98105.47;;;14.95;100.00
72721;BME280;60835;50.974;10.322;2023-05-23T12:03:30;98068.44;;;14.79;100.00
72721;BME280;60835;50.974;10.322;2023-05-23T12:05:58;98091.41;;;14.80;100.00
72721;BME280;60835;50.974;10.322;2023-05-23T12:08:27;98106.56;;;14.79;100.00
72721;BME280;60835;50.974;10.322;2023-05-23T12:10:59;98065.91;;;14.71;100.00
72721;BME280;60835;50.974;10.322;2023-05-23T12:13:27;98132.38;;;15.21;100.00
72721;BME280;60835;50.974;10.322;2023-05-23T12:15:55;98112.53;;;15.02;100.00
72721;BME280;60835;50.974;10.322;2023-05-23T12:18:27;98137.72;;;14.85;100.00
72721;BME280;60835;50.974;10.322;2023-05-23T12:20:54;98184.78;;;15.14;100.00
72721;BME280;60835;50.974;10.322;2023-05-23T12:23:23;98190.88;;;15.08;100.00
72721;BME280;60835;50.974;10.322;2023-05-23T12:25:51;98183.66;;;14.87;100.00
72721;BME280;60835;50.974;10.322;2023-05-23T12:28:34;98224.34;;;15.17;100.00
72721;BME280;60835;50.974;10.322;2023-05-23T12:31:14;98207.28;;;15.47;100.00
72721;BME280;60835;50.974;10.322;2023-05-23T12:33:42;98207.38;;;15.18;100.00
72721;BME280;60835;50.974;10.322;2023-05-23T12:36:10;98159.22;;;14.98;100.00
72721;BME280;60835;50.974;10.322;2023-05-23T12:38:37;98172.97;;;15.23;100.00
72721;BME280;60835;50.974;10.322;2023-05-23T12:41:18;98163.53;;;15.20;100.00
72721;BME280;60835;50.974;10.322;2023-05-23T12:43:50;98153.19;;;15.32;100.00
72721;BME280;60835;50.974;10.322;2023-05-23T12:46:24;98124.50;;;15.34;100.00
72721;BME280;60835;50.974;10.322;2023-05-23T12:48:52;98086.97;;;14.87;100.00
72721;BME280;60835;50.974;10.322;2023-05-23T12:51:19;98099.28;;;15.09;100.00
72721;BME280;60835;50.974;10.322;2023-05-23T12:53:46;98079.19;;;15.34;100.00
72721;BME280;60835;50.974;10.322;2023-05-23T12:56:13;98041.03;;;15.34;100.00
72721;BME280;60835;50.974;10.322;2023-05-23T12:58:39;98046.06;;;15.43;100.00